Time;durP1;ratioP1;P1;durP2;ratioP2;P2;SDS_P1;SDS_P2;PMS_P1;PMS_P2;Temp;Humidity;BMP_temperature;BMP_pressure;BME280_temperature;BME280_humidity;BME280_pressure;Samples;Min_cycle;Max_cycle;Signal;HPM_P1;HPM_P2
2022/12/18 00:02:18;;;;;;;;;;;16.40;87.80;;;;;;5077860;28;19912;-67
2022/12/18 00:04:45;;;;;;;;;;;16.30;89.70;;;;;;5073860;28;19920;-67
2022/12/18 00:07:11;;;;;;;;;;;16.40;91.90;;;;;;5080081;28;20431;-68
2022/12/18 00:09:38;;;;;;;;;;;16.30;90.90;;;;;;5078364;28;19919;-68
2022/12/18 00:12:05;;;;;;;;;;;16.30;91.70;;;;;;5076452;28;19916;-68
2022/12/18 00:14:31;;;;;;;;;;;16.10;90.20;;;;;;5053311;28;19912;-68
2022/12/18 00:17:00;;;;;;;;;;;16.00;90.80;;;;;;5071975;28;20450;-68
2022/12/18 00:19:27;;;;;;;;;;;15.90;90.70;;;;;;5070636;28;19916;-67
2022/12/18 00:21:53;;;;;;;;;;;15.90;91.40;;;;;;5070631;28;20259;-68
2022/12/18 00:24:20;;;;;;;;;;;15.90;91.20;;;;;;5070427;28;20390;-68
2022/12/18 00:26:46;;;;;;;;;;;16.10;92.10;;;;;;5068813;28;20010;-68
2022/12/18 00:29:16;;;;;;;;;;;16.10;90.80;;;;;;5069416;28;19926;-68
2022/12/18 00:31:43;;;;;;;;;;;16.20;90.80;;;;;;5070759;28;19916;-68
2022/12/18 00:34:13;;;;;;;;;;;16.30;90.40;;;;;;5056796;28;19912;-69
2022/12/18 00:36:40;;;;;;;;;;;16.30;88.80;;;;;;5070498;28;19920;-68
2022/12/18 00:39:06;;;;;;;;;;;16.50;89.70;;;;;;5069203;28;19916;-68
2022/12/18 00:44:18;;;;;;;;;;;16.90;87.30;;;;;;5069662;28;19943;-68
2022/12/18 00:46:45;;;;;;;;;;;17.00;86.00;;;;;;5066619;28;19959;-68
2022/12/18 00:49:11;;;;;;;;;;;17.10;85.70;;;;;;5050850;28;19989;-68
2022/12/18 00:51:38;;;;;;;;;;;17.20;85.90;;;;;;5069190;28;19916;-68
2022/12/18 00:54:05;;;;;;;;;;;17.40;85.20;;;;;;5069821;28;20398;-68
2022/12/18 00:56:31;;;;;;;;;;;17.40;85.10;;;;;;5065684;28;19995;-67
2022/12/18 00:58:58;;;;;;;;;;;17.30;84.40;;;;;;5072371;28;19909;-68
2022/12/18 01:01:24;;;;;;;;;;;17.30;84.60;;;;;;5072860;28;20325;-68
2022/12/18 01:03:51;;;;;;;;;;;17.20;84.00;;;;;;5072662;28;19920;-68
2022/12/18 01:06:18;;;;;;;;;;;16.80;86.70;;;;;;5072500;28;20247;-68
2022/12/18 01:08:44;;;;;;;;;;;16.50;89.40;;;;;;5072269;28;19920;-68
2022/12/18 01:11:11;;;;;;;;;;;16.20;91.20;;;;;;5054179;28;19963;-68
2022/12/18 01:13:38;;;;;;;;;;;16.10;92.10;;;;;;5072543;28;19913;-68
2022/12/18 01:16:05;;;;;;;;;;;16.00;92.90;;;;;;5054490;28;19912;-68
2022/12/18 01:18:32;;;;;;;;;;;16.10;93.40;;;;;;5072040;28;19917;-68
2022/12/18 01:20:58;;;;;;;;;;;16.00;92.70;;;;;;5072889;28;20342;-69
2022/12/18 01:23:25;;;;;;;;;;;16.00;91.80;;;;;;5054464;28;20003;-68
2022/12/18 01:28:17;;;;;;;;;;;16.00;92.00;;;;;;5094798;28;20065;-69
2022/12/18 01:30:43;;;;;;;;;;;16.00;92.30;;;;;;5112706;28;20219;-68
2022/12/18 01:33:10;;;;;;;;;;;16.10;92.60;;;;;;5113024;28;19927;-68
2022/12/18 01:35:42;;;;;;;;;;;16.00;92.40;;;;;;5112685;28;19915;-68
2022/12/18 01:38:09;;;;;;;;;;;16.10;93.00;;;;;;5112859;28;19912;-68
2022/12/18 01:40:36;;;;;;;;;;;16.10;92.30;;;;;;5112201;28;19904;-68
2022/12/18 01:43:02;;;;;;;;;;;16.20;91.60;;;;;;5112717;28;19961;-68
2022/12/18 01:45:29;;;;;;;;;;;16.30;90.70;;;;;;5112706;28;20272;-68
2022/12/18 01:47:57;;;;;;;;;;;16.50;91.30;;;;;;5091307;28;19984;-68
2022/12/18 01:50:25;;;;;;;;;;;16.60;89.90;;;;;;5105895;28;19915;-68
2022/12/18 01:52:56;;;;;;;;;;;16.60;89.60;;;;;;5091005;28;20013;-69
2022/12/18 01:55:24;;;;;;;;;;;16.70;89.20;;;;;;5090860;28;20442;-68
2022/12/18 01:57:52;;;;;;;;;;;16.60;88.80;;;;;;5109249;28;19915;-68
2022/12/18 02:00:19;;;;;;;;;;;16.40;89.40;;;;;;5090790;28;20007;-68
2022/12/18 02:02:46;;;;;;;;;;;16.30;91.00;;;;;;5109556;28;20406;-67
2022/12/18 02:05:13;;;;;;;;;;;16.20;92.60;;;;;;5090660;28;19962;-68
2022/12/18 02:07:55;;;;;;;;;;;16.00;92.40;;;;;;5092001;28;19952;-68
2022/12/18 02:10:22;;;;;;;;;;;16.00;93.20;;;;;;5090809;28;20373;-66
2022/12/18 02:12:50;;;;;;;;;;;16.00;92.50;;;;;;5108433;28;19912;-67
2022/12/18 02:15:19;;;;;;;;;;;16.00;90.70;;;;;;5090604;28;19947;-68
2022/12/18 02:17:53;;;;;;;;;;;16.10;90.60;;;;;;5090688;28;19908;-68
2022/12/18 02:20:22;;;;;;;;;;;16.20;90.40;;;;;;5090346;28;19908;-68
2022/12/18 02:23:07;;;;;;;;;;;16.30;88.30;;;;;;5102237;28;20006;-68
2022/12/18 02:25:34;;;;;;;;;;;16.50;88.80;;;;;;5111868;28;19981;-68
2022/12/18 02:28:01;;;;;;;;;;;16.70;85.10;;;;;;5109280;28;19920;-67
2022/12/18 02:30:27;;;;;;;;;;;16.80;86.50;;;;;;5105739;28;20027;-67
2022/12/18 02:32:54;;;;;;;;;;;17.00;80.30;;;;;;5086087;28;19969;-68
2022/12/18 02:35:23;;;;;;;;;;;17.20;82.60;;;;;;5103314;28;20363;-69
2022/12/18 02:37:50;;;;;;;;;;;17.40;83.40;;;;;;5093207;28;20012;-68
2022/12/18 02:40:17;;;;;;;;;;;17.50;84.20;;;;;;5126023;27;20361;-68
2022/12/18 02:42:43;;;;;;;;;;;17.50;80.30;;;;;;5092411;28;20373;-68
2022/12/18 02:45:10;;;;;;;;;;;17.60;81.00;;;;;;5107864;28;19919;-68
2022/12/18 02:47:37;;;;;;;;;;;17.70;80.60;;;;;;5108805;28;19911;-68
2022/12/18 02:50:07;;;;;;;;;;;17.70;76.20;;;;;;5120249;27;20015;-68
2022/12/18 02:52:40;;;;;;;;;;;17.90;77.00;;;;;;5124604;27;19912;-68
2022/12/18 02:55:24;;;;;;;;;;;18.00;78.20;;;;;;5112084;27;20392;-68
2022/12/18 02:57:51;;;;;;;;;;;18.00;74.70;;;;;;5100703;27;19919;-65
2022/12/18 03:00:19;;;;;;;;;;;18.00;76.10;;;;;;5091779;28;20382;-69
2022/12/18 03:02:55;;;;;;;;;;;17.90;73.40;;;;;;5083501;28;20370;-70
2022/12/18 03:05:23;;;;;;;;;;;18.00;73.10;;;;;;5086695;28;20282;-70
2022/12/18 03:07:54;;;;;;;;;;;18.10;73.40;;;;;;5091159;28;19920;-69
2022/12/18 03:10:22;;;;;;;;;;;18.30;75.20;;;;;;5087406;28;19912;-68
2022/12/18 03:12:52;;;;;;;;;;;18.30;74.10;;;;;;5085394;28;20037;-68
2022/12/18 03:15:18;;;;;;;;;;;18.30;69.10;;;;;;5090334;28;19905;-69
2022/12/18 03:17:51;;;;;;;;;;;18.30;73.30;;;;;;5091640;28;19912;-70
2022/12/18 03:20:19;;;;;;;;;;;18.30;67.90;;;;;;5086238;28;19912;-69
2022/12/18 03:22:47;;;;;;;;;;;18.30;69.00;;;;;;5090491;28;19912;-69
2022/12/18 03:25:14;;;;;;;;;;;18.20;68.60;;;;;;5090938;28;20343;-68
2022/12/18 03:27:41;;;;;;;;;;;18.30;66.90;;;;;;5091277;28;19923;-68
2022/12/18 03:30:12;;;;;;;;;;;18.30;69.40;;;;;;5074354;28;19997;-68
2022/12/18 03:32:44;;;;;;;;;;;18.30;69.30;;;;;;5089968;28;19918;-68
2022/12/18 03:35:11;;;;;;;;;;;18.30;68.10;;;;;;5091944;28;19912;-69
2022/12/18 03:37:38;;;;;;;;;;;18.20;70.40;;;;;;5090226;28;19916;-69
2022/12/18 03:40:05;;;;;;;;;;;18.20;70.50;;;;;;5089984;28;19939;-69
2022/12/18 03:42:33;;;;;;;;;;;18.20;73.60;;;;;;5090771;28;19912;-68
2022/12/18 03:45:18;;;;;;;;;;;18.20;75.00;;;;;;5090797;28;19927;-68
2022/12/18 03:47:53;;;;;;;;;;;18.10;75.20;;;;;;5091422;28;20021;-68
2022/12/18 03:50:21;;;;;;;;;;;18.10;73.60;;;;;;5088463;28;21226;-71
2022/12/18 03:52:50;;;;;;;;;;;18.00;73.30;;;;;;5089716;28;20006;-70
2022/12/18 03:55:17;;;;;;;;;;;18.00;70.80;;;;;;5089756;28;19951;-68
2022/12/18 03:57:43;;;;;;;;;;;17.90;68.50;;;;;;5091120;28;19923;-68
2022/12/18 04:00:13;;;;;;;;;;;18.00;67.90;;;;;;5081899;28;19963;-69
2022/12/18 04:02:41;;;;;;;;;;;18.10;68.90;;;;;;5071237;28;19970;-68
2022/12/18 04:05:08;;;;;;;;;;;18.10;70.70;;;;;;5072091;28;19916;-69
2022/12/18 04:07:35;;;;;;;;;;;18.10;70.00;;;;;;5068061;28;19966;-70
2022/12/18 04:10:01;;;;;;;;;;;18.10;67.30;;;;;;5071119;28;20449;-68
2022/12/18 04:12:29;;;;;;;;;;;18.00;63.90;;;;;;5089069;28;19962;-68
2022/12/18 04:14:55;;;;;;;;;;;18.00;64.30;;;;;;5090310;28;20452;-68
2022/12/18 04:17:22;;;;;;;;;;;18.10;65.70;;;;;;5086576;28;19908;-68
2022/12/18 04:19:49;;;;;;;;;;;18.10;68.30;;;;;;5090194;28;20469;-69
2022/12/18 04:22:15;;;;;;;;;;;18.20;70.10;;;;;;5090514;28;19920;-69
2022/12/18 04:24:42;;;;;;;;;;;18.20;63.40;;;;;;5090770;28;20023;-69
2022/12/18 04:27:08;;;;;;;;;;;18.20;64.50;;;;;;5087713;28;20302;-70
2022/12/18 04:29:35;;;;;;;;;;;18.20;65.80;;;;;;5089421;28;19912;-68
2022/12/18 04:32:01;;;;;;;;;;;18.40;65.50;;;;;;5087268;28;19912;-70
2022/12/18 04:34:28;;;;;;;;;;;18.40;66.00;;;;;;5090247;28;19951;-70
2022/12/18 04:36:55;;;;;;;;;;;18.20;64.80;;;;;;5089564;28;19916;-69
2022/12/18 04:39:21;;;;;;;;;;;18.20;66.40;;;;;;5089976;28;19957;-68
2022/12/18 04:41:48;;;;;;;;;;;18.20;64.90;;;;;;5086038;28;19923;-68
2022/12/18 04:44:14;;;;;;;;;;;18.10;67.20;;;;;;5089578;28;20382;-69
2022/12/18 04:46:41;;;;;;;;;;;18.10;69.40;;;;;;5088399;28;19912;-67
2022/12/18 04:49:10;;;;;;;;;;;18.10;69.60;;;;;;5071663;28;19927;-69
2022/12/18 04:51:37;;;;;;;;;;;18.10;70.40;;;;;;5068523;28;19923;-68
2022/12/18 04:54:03;;;;;;;;;;;18.20;68.20;;;;;;5089517;28;19912;-69
2022/12/18 04:56:30;;;;;;;;;;;18.10;67.20;;;;;;5086285;28;20352;-68
2022/12/18 04:58:57;;;;;;;;;;;18.00;66.50;;;;;;5069036;28;19912;-67
2022/12/18 05:01:23;;;;;;;;;;;18.10;67.70;;;;;;5071422;28;19925;-68
2022/12/18 05:03:51;;;;;;;;;;;18.20;66.20;;;;;;5070141;28;19970;-71
2022/12/18 05:06:18;;;;;;;;;;;18.20;65.60;;;;;;5069643;28;19920;-72
2022/12/18 05:08:44;;;;;;;;;;;18.20;66.70;;;;;;5077105;28;19912;-67
2022/12/18 05:11:12;;;;;;;;;;;18.10;67.00;;;;;;5038183;28;19912;-68
2022/12/18 05:13:38;;;;;;;;;;;18.10;67.30;;;;;;5067854;28;20355;-70
2022/12/18 05:16:05;;;;;;;;;;;18.20;67.20;;;;;;5068300;28;20015;-69
2022/12/18 05:18:32;;;;;;;;;;;18.10;67.90;;;;;;5069425;28;19920;-70
2022/12/18 05:20:59;;;;;;;;;;;18.00;67.60;;;;;;5069092;28;19919;-69
2022/12/18 05:23:25;;;;;;;;;;;18.10;68.60;;;;;;5068931;28;19912;-69
2022/12/18 05:25:52;;;;;;;;;;;18.20;67.30;;;;;;5069068;28;19912;-70
2022/12/18 05:28:19;;;;;;;;;;;18.20;67.80;;;;;;5068897;28;20393;-68
2022/12/18 05:30:51;;;;;;;;;;;18.20;67.60;;;;;;5064352;28;20271;-68
2022/12/18 05:33:21;;;;;;;;;;;18.30;67.10;;;;;;5067947;28;19919;-67
2022/12/18 05:35:51;;;;;;;;;;;18.30;64.50;;;;;;5066970;28;20013;-67
2022/12/18 05:38:18;;;;;;;;;;;18.30;64.40;;;;;;5059346;28;19923;-67
2022/12/18 05:40:45;;;;;;;;;;;18.30;65.90;;;;;;5070327;28;19916;-68
2022/12/18 05:43:12;;;;;;;;;;;18.20;64.90;;;;;;5071740;28;20386;-68
2022/12/18 05:45:39;;;;;;;;;;;18.30;65.10;;;;;;5075883;28;20419;-68
2022/12/18 05:48:06;;;;;;;;;;;18.30;65.90;;;;;;5049115;28;19924;-67
2022/12/18 05:50:36;;;;;;;;;;;18.30;64.30;;;;;;5069279;28;19923;-69
2022/12/18 05:53:03;;;;;;;;;;;18.30;65.80;;;;;;5064316;28;19916;-67
2022/12/18 05:55:29;;;;;;;;;;;18.30;65.00;;;;;;5064762;28;19913;-69
2022/12/18 05:57:56;;;;;;;;;;;18.20;64.10;;;;;;5069077;28;19916;-69
2022/12/18 06:00:22;;;;;;;;;;;18.30;65.10;;;;;;5063218;28;19932;-71
2022/12/18 06:02:49;;;;;;;;;;;18.20;65.30;;;;;;5065820;28;19920;-69
2022/12/18 06:05:16;;;;;;;;;;;18.20;66.30;;;;;;5068557;28;20006;-68
2022/12/18 06:07:42;;;;;;;;;;;18.20;67.00;;;;;;5059721;28;19963;-69
2022/12/18 06:10:09;;;;;;;;;;;18.20;66.70;;;;;;5063474;28;19916;-70
2022/12/18 06:12:35;;;;;;;;;;;18.10;66.70;;;;;;5067880;28;19948;-69
2022/12/18 06:15:03;;;;;;;;;;;18.20;67.50;;;;;;5068094;28;19916;-68
2022/12/18 06:17:30;;;;;;;;;;;18.20;68.00;;;;;;5067916;28;20366;-69
2022/12/18 06:19:57;;;;;;;;;;;18.20;68.50;;;;;;5065325;28;20318;-68
2022/12/18 06:22:23;;;;;;;;;;;18.20;70.50;;;;;;5067058;28;19967;-69
2022/12/18 06:24:50;;;;;;;;;;;18.10;70.90;;;;;;5067122;28;20338;-68
2022/12/18 06:27:16;;;;;;;;;;;18.10;68.90;;;;;;5068288;28;19999;-71
2022/12/18 06:29:43;;;;;;;;;;;18.00;68.50;;;;;;5071416;28;19913;-68
2022/12/18 06:32:10;;;;;;;;;;;18.00;67.10;;;;;;5065462;28;19955;-68
2022/12/18 06:34:39;;;;;;;;;;;18.00;64.80;;;;;;5054455;28;20371;-71
2022/12/18 06:37:06;;;;;;;;;;;18.00;65.40;;;;;;5067266;28;19916;-71
2022/12/18 06:39:32;;;;;;;;;;;18.00;66.00;;;;;;5072053;28;19951;-70
2022/12/18 06:41:59;;;;;;;;;;;18.00;66.50;;;;;;5068213;28;20330;-71
2022/12/18 06:44:25;;;;;;;;;;;18.00;66.70;;;;;;5064153;28;19921;-71
2022/12/18 06:46:52;;;;;;;;;;;18.10;67.90;;;;;;5069389;28;19966;-69
2022/12/18 06:49:19;;;;;;;;;;;18.10;66.80;;;;;;5067623;28;20423;-69
2022/12/18 06:51:45;;;;;;;;;;;18.00;66.70;;;;;;5067205;28;19967;-69
2022/12/18 06:54:12;;;;;;;;;;;18.00;66.50;;;;;;5052794;28;19924;-69
2022/12/18 06:56:38;;;;;;;;;;;18.00;66.40;;;;;;5048997;28;19917;-69
2022/12/18 06:59:05;;;;;;;;;;;17.90;66.20;;;;;;5068254;28;19970;-68
2022/12/18 07:01:32;;;;;;;;;;;17.90;67.10;;;;;;5061395;28;19973;-68
2022/12/18 07:03:58;;;;;;;;;;;17.90;66.30;;;;;;5086974;28;19971;-67
2022/12/18 07:06:25;;;;;;;;;;;17.80;66.10;;;;;;5090205;28;19995;-67
2022/12/18 07:08:52;;;;;;;;;;;17.80;65.80;;;;;;5080985;28;19913;-68
2022/12/18 07:11:19;;;;;;;;;;;17.80;66.40;;;;;;5070528;28;19969;-69
2022/12/18 07:13:45;;;;;;;;;;;17.80;67.30;;;;;;5073656;28;19912;-68
2022/12/18 07:16:16;;;;;;;;;;;17.80;68.50;;;;;;5090083;28;19932;-67
2022/12/18 07:18:42;;;;;;;;;;;17.80;67.10;;;;;;5092079;28;20363;-68
2022/12/18 07:21:10;;;;;;;;;;;17.80;68.00;;;;;;5074236;28;20479;-69
2022/12/18 07:23:37;;;;;;;;;;;17.80;68.20;;;;;;5088079;28;19928;-68
2022/12/18 07:26:03;;;;;;;;;;;17.80;67.50;;;;;;5090252;28;20006;-68
2022/12/18 07:28:30;;;;;;;;;;;17.70;68.80;;;;;;5091631;28;19982;-68
2022/12/18 07:30:57;;;;;;;;;;;17.70;69.10;;;;;;5090312;28;19999;-68
2022/12/18 07:33:23;;;;;;;;;;;17.70;70.00;;;;;;5089778;28;20381;-68
2022/12/18 07:35:50;;;;;;;;;;;17.70;69.90;;;;;;5111450;28;19920;-68
2022/12/18 07:38:16;;;;;;;;;;;17.70;69.70;;;;;;5105211;28;19935;-68
2022/12/18 07:40:43;;;;;;;;;;;17.70;71.50;;;;;;5111362;28;19918;-68
2022/12/18 07:43:09;;;;;;;;;;;17.70;71.70;;;;;;5112306;28;20657;-68
2022/12/18 07:45:36;;;;;;;;;;;17.70;72.10;;;;;;5109018;27;19946;-69
2022/12/18 07:48:03;;;;;;;;;;;17.70;70.70;;;;;;5104212;27;19922;-71
2022/12/18 07:50:29;;;;;;;;;;;17.60;72.30;;;;;;5112463;27;19912;-70
2022/12/18 07:52:56;;;;;;;;;;;17.60;72.60;;;;;;5111076;27;19912;-70
2022/12/18 07:55:22;;;;;;;;;;;17.70;73.30;;;;;;5104320;28;20006;-70
2022/12/18 07:57:49;;;;;;;;;;;17.60;73.90;;;;;;5108195;28;19916;-68
2022/12/18 08:00:16;;;;;;;;;;;17.60;73.90;;;;;;5109781;28;19916;-69
2022/12/18 08:02:42;;;;;;;;;;;17.60;74.40;;;;;;5102948;28;19923;-68
2022/12/18 08:05:09;;;;;;;;;;;17.60;74.50;;;;;;5110147;28;19969;-68
2022/12/18 08:07:36;;;;;;;;;;;17.50;72.40;;;;;;5101986;28;19998;-69
2022/12/18 08:10:02;;;;;;;;;;;17.40;72.70;;;;;;5109988;28;19919;-69
2022/12/18 08:12:29;;;;;;;;;;;17.40;73.30;;;;;;5103723;28;19954;-67
2022/12/18 08:14:55;;;;;;;;;;;17.50;74.30;;;;;;5098329;28;20365;-68
2022/12/18 08:17:22;;;;;;;;;;;17.40;74.30;;;;;;5109558;28;19941;-68
2022/12/18 08:19:49;;;;;;;;;;;17.50;74.80;;;;;;5111308;28;19916;-67
2022/12/18 08:22:15;;;;;;;;;;;17.50;74.20;;;;;;5111111;28;20358;-67
2022/12/18 08:24:42;;;;;;;;;;;17.40;72.00;;;;;;5109671;28;20303;-67
2022/12/18 08:27:08;;;;;;;;;;;17.40;72.50;;;;;;5086721;28;19916;-67
2022/12/18 08:29:35;;;;;;;;;;;17.40;72.30;;;;;;5101252;28;19972;-67
2022/12/18 08:32:02;;;;;;;;;;;17.40;72.30;;;;;;5109841;28;19942;-67
2022/12/18 08:34:28;;;;;;;;;;;17.40;73.10;;;;;;5101308;28;19959;-67
2022/12/18 08:36:55;;;;;;;;;;;17.40;72.90;;;;;;5105705;28;20382;-68
2022/12/18 08:39:21;;;;;;;;;;;17.40;73.00;;;;;;5111056;28;19912;-67
2022/12/18 08:44:37;;;;;;;;;;;17.40;72.80;;;;;;5108802;28;19912;-67
2022/12/18 08:44:37;;;;;;;;;;;17.40;73.10;;;;;;5109664;28;19996;-68
2022/12/18 08:47:04;;;;;;;;;;;17.40;73.70;;;;;;5110692;28;20006;-67
2022/12/18 08:49:31;;;;;;;;;;;17.30;72.70;;;;;;5081794;28;20800;-69
2022/12/18 08:51:57;;;;;;;;;;;17.30;73.30;;;;;;5102678;28;19915;-68
2022/12/18 08:54:24;;;;;;;;;;;17.30;74.40;;;;;;5105949;28;19923;-67
2022/12/18 08:56:51;;;;;;;;;;;17.30;75.00;;;;;;5110247;28;19916;-67
2022/12/18 08:59:17;;;;;;;;;;;17.10;80.10;;;;;;5095546;28;19916;-67
2022/12/18 09:01:44;;;;;;;;;;;16.60;83.70;;;;;;5100596;28;19923;-68
2022/12/18 09:04:11;;;;;;;;;;;16.20;85.00;;;;;;5106134;28;19924;-67
2022/12/18 09:06:37;;;;;;;;;;;16.00;86.20;;;;;;5108950;28;19916;-67
2022/12/18 09:09:04;;;;;;;;;;;15.90;86.00;;;;;;5110178;28;19919;-66
2022/12/18 09:11:31;;;;;;;;;;;15.80;86.00;;;;;;5109965;28;19920;-66
2022/12/18 09:13:58;;;;;;;;;;;15.80;85.40;;;;;;5108872;28;19931;-68
2022/12/18 09:16:25;;;;;;;;;;;15.80;86.10;;;;;;5089833;28;19908;-67
2022/12/18 09:18:58;;;;;;;;;;;16.00;86.00;;;;;;5110440;28;20268;-67
2022/12/18 09:21:26;;;;;;;;;;;16.00;85.10;;;;;;5104387;28;19916;-67
2022/12/18 09:23:53;;;;;;;;;;;16.00;84.40;;;;;;5079726;28;20289;-67
2022/12/18 09:26:20;;;;;;;;;;;16.00;84.90;;;;;;5107931;28;19916;-67
2022/12/18 09:28:46;;;;;;;;;;;16.00;85.10;;;;;;5091330;28;19916;-68
2022/12/18 09:31:13;;;;;;;;;;;16.00;84.00;;;;;;5086227;28;19973;-69
2022/12/18 09:33:40;;;;;;;;;;;16.00;82.90;;;;;;5099062;28;19966;-68
2022/12/18 09:36:07;;;;;;;;;;;16.10;83.40;;;;;;5104379;28;19916;-68
2022/12/18 09:38:34;;;;;;;;;;;16.00;84.40;;;;;;5102564;28;20357;-68
2022/12/18 09:41:15;;;;;;;;;;;16.00;83.60;;;;;;5095654;28;20274;-68
2022/12/18 10:06:20;;;;;;;;;;;16.20;82.90;;;;;;5086433;28;20192;-68
2022/12/18 10:08:49;;;;;;;;;;;16.20;83.30;;;;;;5106098;28;19997;-68
2022/12/18 10:11:16;;;;;;;;;;;16.30;82.70;;;;;;5094101;28;19923;-68
2022/12/18 10:13:45;;;;;;;;;;;16.30;82.40;;;;;;5112643;28;20301;-68
2022/12/18 10:16:20;;;;;;;;;;;16.30;81.70;;;;;;5112624;28;20018;-68
2022/12/18 10:18:55;;;;;;;;;;;16.30;81.80;;;;;;5093430;28;19918;-68
2022/12/18 10:21:22;;;;;;;;;;;16.40;82.00;;;;;;5094253;28;20374;-68
2022/12/18 10:23:58;;;;;;;;;;;16.40;81.00;;;;;;5112458;28;19920;-68
2022/12/18 10:26:25;;;;;;;;;;;16.40;80.80;;;;;;5112327;28;19915;-68
2022/12/18 10:28:51;;;;;;;;;;;16.50;79.90;;;;;;5100181;28;19919;-69
2022/12/18 10:31:19;;;;;;;;;;;16.50;79.70;;;;;;5112295;28;20308;-68
2022/12/18 10:33:46;;;;;;;;;;;16.50;81.20;;;;;;5094110;28;19965;-68
2022/12/18 10:36:12;;;;;;;;;;;16.50;81.10;;;;;;5109020;28;19919;-67
2022/12/18 10:38:39;;;;;;;;;;;16.50;81.30;;;;;;5104638;28;19961;-68
2022/12/18 10:41:05;;;;;;;;;;;16.50;81.30;;;;;;5093811;28;19912;-68
2022/12/18 10:43:36;;;;;;;;;;;16.50;80.60;;;;;;5112090;28;20380;-68
2022/12/18 10:46:12;;;;;;;;;;;16.50;81.70;;;;;;5093889;28;19912;-68
2022/12/18 10:48:39;;;;;;;;;;;16.50;81.20;;;;;;5084169;28;20349;-68
2022/12/18 10:51:06;;;;;;;;;;;16.50;81.70;;;;;;5110787;28;19980;-67
2022/12/18 10:53:33;;;;;;;;;;;16.50;82.50;;;;;;5112142;28;19915;-68
2022/12/18 10:56:00;;;;;;;;;;;16.40;82.80;;;;;;5093414;28;19912;-68
2022/12/18 10:58:33;;;;;;;;;;;16.40;82.80;;;;;;5092963;28;19956;-68
2022/12/18 11:01:10;;;;;;;;;;;16.40;83.50;;;;;;5111737;28;20068;-68
2022/12/18 11:03:37;;;;;;;;;;;16.40;83.50;;;;;;5093885;28;19941;-68
2022/12/18 11:06:05;;;;;;;;;;;16.30;83.70;;;;;;5111710;28;20393;-68
2022/12/18 11:08:31;;;;;;;;;;;16.30;83.70;;;;;;5105640;28;19916;-68
2022/12/18 11:10:58;;;;;;;;;;;16.30;84.20;;;;;;5093475;28;19930;-68
2022/12/18 11:13:25;;;;;;;;;;;16.30;84.60;;;;;;5094554;28;19923;-68
2022/12/18 11:15:52;;;;;;;;;;;16.30;85.00;;;;;;5097530;28;19918;-68
2022/12/18 11:18:38;;;;;;;;;;;16.20;86.40;;;;;;5096606;28;20461;-68
2022/12/18 11:21:09;;;;;;;;;;;16.10;87.00;;;;;;5114964;28;19907;-68
2022/12/18 11:23:35;;;;;;;;;;;15.90;87.50;;;;;;5097009;28;19912;-68
2022/12/18 11:26:03;;;;;;;;;;;15.90;88.50;;;;;;5115728;28;20445;-68
2022/12/18 11:28:37;;;;;;;;;;;15.80;88.30;;;;;;5096401;28;19911;-68
2022/12/18 11:31:22;;;;;;;;;;;15.70;88.80;;;;;;5115314;28;20370;-68
2022/12/18 11:34:04;;;;;;;;;;;15.70;89.30;;;;;;5115219;28;19914;-68
2022/12/18 11:36:34;;;;;;;;;;;15.70;89.60;;;;;;5107928;28;19919;-68
2022/12/18 11:39:02;;;;;;;;;;;15.70;89.90;;;;;;5091509;28;19912;-67
2022/12/18 11:44:34;;;;;;;;;;;15.60;90.20;;;;;;5099227;28;19942;-67
2022/12/18 11:47:09;;;;;;;;;;;15.60;90.30;;;;;;5114236;28;19915;-67
2022/12/18 11:49:35;;;;;;;;;;;15.60;90.40;;;;;;5085524;28;20330;-68
2022/12/18 11:52:04;;;;;;;;;;;15.50;90.60;;;;;;5107188;28;19915;-67
2022/12/18 11:54:31;;;;;;;;;;;15.60;90.50;;;;;;5096567;28;20035;-67
2022/12/18 11:56:58;;;;;;;;;;;15.60;90.60;;;;;;5114056;28;19908;-67
2022/12/18 11:59:30;;;;;;;;;;;15.50;90.30;;;;;;5114262;28;19959;-67
2022/12/18 12:02:05;;;;;;;;;;;15.60;90.30;;;;;;5114746;28;19951;-68
2022/12/18 12:04:47;;;;;;;;;;;15.60;90.30;;;;;;5114698;28;20341;-67
2022/12/18 12:07:20;;;;;;;;;;;15.60;90.40;;;;;;5110700;28;19970;-68
2022/12/18 12:09:51;;;;;;;;;;;15.60;90.50;;;;;;5092736;28;19912;-67
2022/12/18 12:12:29;;;;;;;;;;;15.50;90.60;;;;;;5095401;28;19912;-67
2022/12/18 12:39:26;;;;;;;;;;;15.40;90.10;;;;;;5090108;28;20018;-68
2022/12/18 12:44:58;;;;;;;;;;;15.50;89.30;;;;;;5097387;28;19926;-67
2022/12/18 12:47:32;;;;;;;;;;;15.50;88.20;;;;;;5113218;28;19908;-67
2022/12/18 12:49:59;;;;;;;;;;;15.50;87.80;;;;;;5090642;28;19912;-67
2022/12/18 12:52:52;;;;;;;;;;;15.50;88.40;;;;;;5111639;28;19916;-67
2022/12/18 12:55:23;;;;;;;;;;;15.60;88.30;;;;;;5109159;28;20003;-67
2022/12/18 12:57:55;;;;;;;;;;;15.60;88.50;;;;;;5095369;28;19915;-67
2022/12/18 13:00:24;;;;;;;;;;;15.60;88.70;;;;;;5095325;28;20320;-67
2022/12/18 13:02:58;;;;;;;;;;;15.70;88.70;;;;;;5112864;28;19914;-67
2022/12/18 13:05:27;;;;;;;;;;;15.70;88.70;;;;;;5095260;28;19919;-67
2022/12/18 13:08:03;;;;;;;;;;;15.70;88.90;;;;;;5094967;28;19953;-67
2022/12/18 13:10:33;;;;;;;;;;;15.70;89.10;;;;;;5093826;28;19954;-67
2022/12/18 13:13:01;;;;;;;;;;;15.70;89.10;;;;;;5112449;28;20281;-67
2022/12/18 13:15:32;;;;;;;;;;;15.70;89.30;;;;;;5095288;28;19908;-67
2022/12/18 13:18:05;;;;;;;;;;;15.70;89.40;;;;;;5078327;28;19943;-68
2022/12/18 13:20:36;;;;;;;;;;;15.70;89.20;;;;;;5094822;28;19919;-67
2022/12/18 13:23:22;;;;;;;;;;;15.70;89.30;;;;;;5110443;28;20519;-67
2022/12/18 13:25:52;;;;;;;;;;;15.70;88.70;;;;;;5088683;28;19919;-67
2022/12/18 13:28:24;;;;;;;;;;;15.70;88.30;;;;;;5113105;28;19915;-67
2022/12/18 13:30:55;;;;;;;;;;;15.70;88.20;;;;;;5098882;28;20318;-67
2022/12/18 13:33:31;;;;;;;;;;;15.80;87.90;;;;;;5101596;28;19989;-67
2022/12/18 13:36:17;;;;;;;;;;;15.80;87.50;;;;;;5099033;28;19990;-68
2022/12/18 13:38:44;;;;;;;;;;;15.90;87.70;;;;;;5094990;28;19912;-67
2022/12/18 13:41:14;;;;;;;;;;;15.90;88.00;;;;;;5108782;28;19924;-67
2022/12/18 13:43:42;;;;;;;;;;;16.00;88.50;;;;;;5098701;28;19912;-67
2022/12/18 13:46:21;;;;;;;;;;;15.90;88.20;;;;;;5080971;28;19908;-67
2022/12/18 13:48:58;;;;;;;;;;;16.00;87.40;;;;;;5112762;28;19955;-67
2022/12/18 13:51:25;;;;;;;;;;;16.00;87.70;;;;;;5112570;28;19960;-67
2022/12/18 13:53:52;;;;;;;;;;;16.00;87.80;;;;;;5093654;28;19914;-67
2022/12/18 13:56:22;;;;;;;;;;;16.10;87.70;;;;;;5093507;28;19915;-67
2022/12/18 13:59:07;;;;;;;;;;;16.10;88.10;;;;;;5112369;28;19957;-66
2022/12/18 14:01:33;;;;;;;;;;;16.00;87.40;;;;;;5099026;28;19916;-67
2022/12/18 14:04:18;;;;;;;;;;;16.10;86.90;;;;;;5110463;28;19920;-67
2022/12/18 14:06:45;;;;;;;;;;;16.10;85.50;;;;;;5082296;28;19912;-67
2022/12/18 14:09:16;;;;;;;;;;;16.10;83.40;;;;;;5112676;28;19912;-67
2022/12/18 14:11:46;;;;;;;;;;;16.20;79.90;;;;;;5095985;28;19908;-67
2022/12/18 14:14:14;;;;;;;;;;;16.20;80.00;;;;;;5084383;28;20324;-67
2022/12/18 14:16:41;;;;;;;;;;;16.30;77.90;;;;;;5091489;28;19896;-67
2022/12/18 14:19:12;;;;;;;;;;;16.30;77.60;;;;;;5112508;28;19962;-67
2022/12/18 14:40:50;;;;;;;;;;;16.30;75.00;;;;;;5087534;28;20044;-66
2022/12/18 14:43:17;;;;;;;;;;;16.30;73.90;;;;;;5050473;28;19924;-67
2022/12/18 14:45:44;;;;;;;;;;;16.30;74.30;;;;;;5053076;28;19929;-67
2022/12/18 14:48:13;;;;;;;;;;;16.30;72.40;;;;;;5072098;28;19912;-67
2022/12/18 14:50:40;;;;;;;;;;;16.30;73.20;;;;;;5074967;28;19915;-67
2022/12/18 14:53:06;;;;;;;;;;;16.30;73.80;;;;;;5070268;28;19967;-67
2022/12/18 14:55:33;;;;;;;;;;;16.30;74.20;;;;;;5057140;28;19908;-67
2022/12/18 14:58:00;;;;;;;;;;;16.30;73.40;;;;;;5057247;28;20366;-67
2022/12/18 15:00:26;;;;;;;;;;;16.30;73.10;;;;;;5074534;28;19916;-67
2022/12/18 15:02:53;;;;;;;;;;;16.30;72.20;;;;;;5067848;28;20281;-67
2022/12/18 15:05:21;;;;;;;;;;;16.30;73.20;;;;;;5074695;28;19943;-67
2022/12/18 15:07:49;;;;;;;;;;;16.40;72.90;;;;;;5074680;28;19987;-67
2022/12/18 15:10:15;;;;;;;;;;;16.30;74.90;;;;;;5054848;28;19923;-67
2022/12/18 15:12:46;;;;;;;;;;;16.30;73.70;;;;;;5067183;28;19920;-67
2022/12/18 15:15:31;;;;;;;;;;;16.30;73.30;;;;;;5074832;28;19959;-67
2022/12/18 15:17:58;;;;;;;;;;;16.30;73.40;;;;;;5075293;28;19908;-67
2022/12/18 15:20:25;;;;;;;;;;;16.30;71.40;;;;;;5073344;28;20385;-67
2022/12/18 15:22:51;;;;;;;;;;;16.40;72.00;;;;;;5074026;28;19935;-67
2022/12/18 15:25:36;;;;;;;;;;;16.40;72.40;;;;;;5074237;28;20009;-67
2022/12/18 15:28:03;;;;;;;;;;;16.40;73.70;;;;;;5073794;28;19999;-67
2022/12/18 15:30:31;;;;;;;;;;;16.50;76.30;;;;;;5073208;28;19912;-67
2022/12/18 15:33:20;;;;;;;;;;;16.50;76.60;;;;;;5072873;28;20267;-67
2022/12/18 15:35:47;;;;;;;;;;;16.50;76.90;;;;;;5049806;28;20309;-67
2022/12/18 15:38:13;;;;;;;;;;;16.50;76.90;;;;;;5074151;28;19912;-67
2022/12/18 15:40:40;;;;;;;;;;;16.50;75.80;;;;;;5056438;28;20370;-67
2022/12/18 15:45:52;;;;;;;;;;;16.50;76.10;;;;;;5078793;28;19923;-67